createdAt,value
2018-04-26T00:00:57.255Z,14.20
2018-04-26T00:01:57.224Z,15.30
2018-04-26T00:02:57.197Z,13.50
2018-04-26T00:03:57.168Z,13.60
2018-04-26T00:04:57.140Z,13.70
2018-04-26T00:05:57.115Z,14.30
2018-04-26T00:06:57.084Z,13.20
2018-04-26T00:07:57.061Z,14.20
2018-04-26T00:08:57.027Z,13.40
2018-04-26T00:09:57.002Z,14.30
2018-04-26T00:10:56.971Z,15.20
2018-04-26T00:11:56.942Z,11.80
2018-04-26T00:12:56.916Z,9.40
2018-04-26T00:13:56.887Z,10.10
2018-04-26T00:14:56.857Z,12.20
2018-04-26T00:15:56.830Z,13.40
2018-04-26T00:16:56.802Z,15.50
2018-04-26T00:17:56.774Z,9.50
2018-04-26T00:18:56.745Z,11.50
2018-04-26T00:19:56.716Z,10.90
2018-04-26T00:20:56.689Z,14.90
2018-04-26T00:21:56.661Z,15.50
2018-04-26T00:22:56.636Z,14.10
2018-04-26T00:23:56.603Z,12.00
2018-04-26T00:24:56.576Z,10.00
2018-04-26T00:25:56.548Z,12.90
2018-04-26T00:26:56.522Z,13.30
2018-04-26T00:27:56.490Z,13.30
2018-04-26T00:28:56.483Z,15.10
2018-04-26T00:29:56.444Z,17.80
2018-04-26T00:30:56.406Z,18.90
2018-04-26T00:31:56.378Z,17.50
2018-04-26T00:32:56.359Z,17.80
2018-04-26T00:33:56.322Z,16.20
2018-04-26T00:34:56.293Z,14.30
2018-04-26T00:35:56.265Z,17.50
2018-04-26T00:36:56.243Z,18.70
2018-04-26T00:37:56.209Z,17.50
2018-04-26T00:38:56.180Z,15.60
2018-04-26T00:39:56.154Z,12.90
2018-04-26T00:40:56.128Z,11.00
2018-04-26T00:41:56.096Z,15.60
2018-04-26T00:42:56.076Z,15.00
2018-04-26T00:43:56.039Z,11.70
2018-04-26T00:44:56.014Z,15.20
2018-04-26T00:45:55.983Z,18.30
2018-04-26T00:46:55.954Z,18.60
2018-04-26T00:47:55.977Z,19.90
2018-04-26T00:48:55.900Z,20.20
2018-04-26T00:49:55.871Z,21.80
2018-04-26T00:50:55.841Z,22.30
2018-04-26T00:51:55.815Z,21.50
2018-04-26T00:52:55.786Z,22.40
2018-04-26T00:53:55.761Z,24.10
2018-04-26T00:54:55.729Z,24.50
2018-04-26T00:55:55.701Z,25.00
2018-04-26T00:56:55.673Z,25.50
2018-04-26T00:57:55.645Z,26.00
2018-04-26T00:58:55.621Z,25.60
2018-04-26T00:59:55.589Z,26.30
2018-04-26T01:00:55.570Z,26.70
2018-04-26T01:01:55.532Z,27.90
2018-04-26T01:02:55.513Z,28.40
2018-04-26T01:03:55.475Z,27.40
2018-04-26T01:04:55.447Z,28.00
2018-04-26T01:05:55.419Z,29.50
2018-04-26T01:06:55.390Z,30.20
2018-04-26T01:07:55.362Z,28.60
2018-04-26T01:08:55.334Z,28.70
2018-04-26T01:09:55.306Z,28.90
2018-04-26T01:10:55.277Z,30.10
2018-04-26T01:11:55.250Z,28.00
2018-04-26T01:12:55.221Z,29.00
2018-04-26T01:13:55.193Z,28.80
2018-04-26T01:14:55.164Z,28.40
2018-04-26T01:15:55.136Z,27.40
2018-04-26T01:16:55.107Z,25.10
2018-04-26T01:17:55.080Z,21.50
2018-04-26T01:18:55.051Z,20.60
2018-04-26T01:19:55.023Z,20.70
2018-04-26T01:20:54.997Z,21.60
2018-04-26T01:21:54.967Z,17.10
2018-04-26T01:22:54.943Z,9.60
2018-04-26T01:23:54.911Z,12.60
2018-04-26T01:24:54.882Z,12.60
2018-04-26T01:25:54.921Z,11.40
2018-04-26T01:26:54.827Z,13.80
2018-04-26T01:27:54.798Z,13.00
2018-04-26T01:28:54.769Z,13.20
2018-04-26T01:29:54.748Z,9.60
2018-04-26T01:30:54.712Z,9.40
2018-04-26T01:31:54.685Z,9.60
2018-04-26T01:32:54.657Z,9.00
2018-04-26T01:33:54.632Z,9.80
2018-04-26T01:34:54.604Z,9.90
2018-04-26T01:35:54.572Z,9.30
2018-04-26T01:36:54.549Z,9.80
2018-04-26T01:37:54.516Z,8.90
2018-04-26T01:38:54.496Z,9.50
2018-04-26T01:39:54.461Z,10.70
2018-04-26T01:40:54.432Z,10.40
2018-04-26T01:41:54.404Z,11.90
2018-04-26T01:42:54.381Z,10.20
2018-04-26T01:43:54.346Z,9.90
2018-04-26T01:44:54.322Z,9.60
2018-04-26T01:45:54.291Z,7.60
2018-04-26T01:46:54.261Z,11.70
2018-04-26T01:47:54.234Z,12.00
2018-04-26T01:48:54.214Z,9.30
2018-04-26T01:49:54.178Z,8.70
2018-04-26T01:50:54.148Z,8.40
2018-04-26T01:51:54.120Z,9.90
2018-04-26T01:52:54.095Z,12.70
2018-04-26T01:53:54.065Z,9.40
2018-04-26T01:54:54.035Z,12.60
2018-04-26T01:55:54.007Z,11.80
2018-04-26T01:56:53.982Z,12.50
2018-04-26T01:57:53.957Z,14.00
2018-04-26T01:58:53.921Z,13.90
2018-04-26T01:59:53.894Z,13.70
2018-04-26T02:00:53.866Z,16.60
2018-04-26T02:01:53.841Z,15.80
2018-04-26T02:02:53.808Z,17.50
2018-04-26T02:03:53.781Z,15.80
2018-04-26T02:04:53.752Z,15.80
2018-04-26T02:05:53.724Z,16.00
2018-04-26T02:06:53.696Z,16.90
2018-04-26T02:07:53.669Z,15.90
2018-04-26T02:08:53.640Z,16.00
2018-04-26T02:09:53.611Z,16.30
2018-04-26T02:10:53.582Z,15.10
2018-04-26T02:11:53.554Z,14.00
2018-04-26T02:12:53.527Z,16.40
2018-04-26T02:13:53.499Z,12.50
2018-04-26T02:14:53.469Z,15.90
2018-04-26T02:15:53.441Z,16.90
2018-04-26T02:16:53.413Z,16.50
2018-04-26T02:17:53.386Z,15.80
2018-04-26T02:18:53.356Z,16.90
2018-04-26T02:19:53.330Z,13.50
2018-04-26T02:20:53.305Z,14.60
2018-04-26T02:21:53.273Z,10.80
2018-04-26T02:22:53.244Z,9.80
2018-04-26T02:23:53.220Z,9.60
2018-04-26T02:24:53.189Z,8.90
2018-04-26T02:25:53.161Z,9.20
2018-04-26T02:26:53.131Z,9.60
2018-04-26T02:27:53.108Z,9.30
2018-04-26T02:28:53.077Z,7.90
2018-04-26T02:29:53.047Z,7.20
2018-04-26T02:30:53.018Z,7.50
2018-04-26T02:31:52.991Z,12.20
2018-04-26T02:32:52.962Z,8.40
2018-04-26T02:33:52.939Z,8.70
2018-04-26T02:34:52.905Z,9.40
2018-04-26T02:35:52.878Z,11.40
2018-04-26T02:36:52.853Z,12.30
2018-04-26T02:37:52.823Z,10.10
2018-04-26T02:38:52.793Z,8.90
2018-04-26T02:39:52.764Z,8.60
2018-04-26T02:40:52.737Z,8.20
2018-04-26T02:41:52.708Z,8.40
2018-04-26T02:42:52.679Z,14.10
2018-04-26T02:43:52.652Z,15.30
2018-04-26T02:44:52.622Z,15.40
2018-04-26T02:45:52.600Z,14.20
2018-04-26T02:46:52.566Z,9.10
2018-04-26T02:47:52.540Z,11.00
2018-04-26T02:48:52.511Z,10.80
2018-04-26T02:49:52.482Z,10.60
2018-04-26T02:50:52.455Z,12.10
2018-04-26T02:51:52.425Z,12.30
2018-04-26T02:52:52.397Z,12.00
2018-04-26T02:53:52.370Z,13.20
2018-04-26T02:54:52.345Z,9.70
2018-04-26T02:55:52.319Z,9.00
2018-04-26T02:56:52.306Z,10.00
2018-04-26T02:57:52.259Z,9.40
2018-04-26T02:58:52.226Z,9.10
2018-04-26T02:59:52.203Z,10.40
2018-04-26T03:00:52.174Z,8.80
2018-04-26T03:01:52.145Z,8.30
2018-04-26T03:02:52.114Z,8.00
2018-04-26T03:03:52.085Z,8.70
2018-04-26T03:04:52.059Z,7.20
2018-04-26T03:05:52.030Z,9.70
2018-04-26T03:06:52.001Z,11.70
2018-04-26T03:07:51.974Z,15.50
2018-04-26T03:08:51.945Z,12.60
2018-04-26T03:09:51.917Z,9.80
2018-04-26T03:10:51.889Z,7.60
2018-04-26T03:11:51.860Z,11.90
2018-04-26T03:12:51.837Z,10.90
2018-04-26T03:13:51.810Z,13.20
2018-04-26T03:14:51.779Z,11.10
2018-04-26T03:15:51.748Z,11.50
2018-04-26T03:16:51.720Z,10.00
2018-04-26T03:17:51.705Z,9.70
2018-04-26T03:18:51.662Z,11.50
2018-04-26T03:19:51.638Z,10.50
2018-04-26T03:20:51.608Z,12.30
2018-04-26T03:21:51.580Z,10.50
2018-04-26T03:22:51.549Z,10.00
2018-04-26T03:23:51.524Z,10.30
2018-04-26T03:24:51.501Z,10.90
2018-04-26T03:25:51.469Z,9.30
2018-04-26T03:26:51.437Z,9.00
2018-04-26T03:27:51.410Z,8.40
2018-04-26T03:28:51.381Z,9.50
2018-04-26T03:29:51.354Z,10.20
2018-04-26T03:30:51.333Z,11.20
2018-04-26T03:31:51.299Z,7.60
2018-04-26T03:32:51.274Z,7.20
2018-04-26T03:33:51.241Z,8.80
2018-04-26T03:34:51.213Z,8.80
2018-04-26T03:35:51.184Z,7.20
2018-04-26T03:36:51.161Z,11.80
2018-04-26T03:37:51.129Z,10.10
2018-04-26T03:38:51.101Z,10.10
2018-04-26T03:39:51.072Z,11.20
2018-04-26T03:40:51.045Z,9.40
2018-04-26T03:41:51.022Z,8.20
2018-04-26T03:42:50.989Z,8.30
2018-04-26T03:43:50.961Z,7.00
2018-04-26T03:44:50.934Z,7.40
2018-04-26T03:45:50.904Z,8.50
2018-04-26T03:46:50.876Z,8.20
2018-04-26T03:47:50.850Z,7.60
2018-04-26T03:48:50.820Z,7.40
2018-04-26T03:49:50.792Z,8.80
2018-04-26T03:50:50.764Z,8.80
2018-04-26T03:51:50.736Z,9.40
2018-04-26T03:52:50.716Z,9.00
2018-04-26T03:53:50.684Z,9.00
2018-04-26T03:54:50.651Z,9.90
2018-04-26T03:55:50.624Z,9.60
2018-04-26T03:56:50.596Z,10.00
2018-04-26T03:57:50.569Z,12.00
2018-04-26T03:58:50.540Z,14.60
2018-04-26T03:59:50.512Z,10.50
2018-04-26T04:00:50.495Z,12.30
2018-04-26T04:01:50.456Z,11.90
2018-04-26T04:02:50.428Z,15.20
2018-04-26T04:03:50.399Z,16.80
2018-04-26T04:04:50.375Z,14.30
2018-04-26T04:05:50.343Z,11.20
2018-04-26T04:06:50.315Z,10.90
2018-04-26T04:07:50.293Z,20.70
2018-04-26T04:08:50.263Z,17.10
2018-04-26T04:09:50.231Z,21.80
2018-04-26T04:10:50.203Z,22.20
2018-04-26T04:11:50.176Z,20.00
2018-04-26T04:12:50.147Z,17.80
2018-04-26T04:13:50.166Z,18.30
2018-04-26T04:14:50.095Z,16.90
2018-04-26T04:15:50.063Z,27.00
2018-04-26T04:16:50.036Z,32.20
2018-04-26T04:17:50.007Z,30.90
2018-04-26T04:18:49.978Z,32.60
2018-04-26T04:19:49.950Z,26.80
2018-04-26T04:20:49.922Z,20.10
2018-04-26T04:21:49.894Z,28.00
2018-04-26T04:22:49.867Z,27.90
2018-04-26T04:23:49.837Z,29.20
2018-04-26T04:24:49.811Z,20.20
2018-04-26T04:25:49.781Z,27.30
2018-04-26T04:26:49.755Z,31.40
2018-04-26T04:27:49.725Z,31.90
2018-04-26T04:28:49.704Z,31.70
2018-04-26T04:29:49.670Z,31.10
2018-04-26T04:30:49.640Z,33.50
2018-04-26T04:31:49.612Z,30.40
2018-04-26T04:32:49.587Z,35.60
2018-04-26T04:33:49.557Z,34.80
2018-04-26T04:34:49.528Z,34.60
2018-04-26T04:35:49.502Z,34.40
2018-04-26T04:36:49.473Z,32.80
2018-04-26T04:37:49.446Z,31.50
2018-04-26T04:38:49.416Z,30.60
2018-04-26T04:39:49.387Z,29.00
2018-04-26T04:40:49.363Z,25.90
2018-04-26T04:41:49.332Z,26.20
2018-04-26T04:42:49.302Z,30.40
2018-04-26T04:43:49.275Z,31.10
2018-04-26T04:44:49.247Z,24.80
2018-04-26T04:45:49.222Z,27.70
2018-04-26T04:46:49.193Z,31.60
2018-04-26T04:47:49.162Z,31.40
2018-04-26T04:48:49.135Z,28.30
2018-04-26T04:49:49.107Z,29.10
2018-04-26T04:50:49.083Z,32.20
2018-04-26T04:51:49.053Z,30.60
2018-04-26T04:52:49.027Z,34.40
2018-04-26T04:53:48.994Z,31.70
2018-04-26T04:54:48.966Z,29.90
2018-04-26T04:55:48.937Z,33.90
2018-04-26T04:56:48.910Z,28.30
2018-04-26T04:57:48.884Z,35.20
2018-04-26T04:58:48.853Z,33.20
2018-04-26T04:59:48.829Z,28.30
2018-04-26T05:00:48.797Z,30.40
2018-04-26T05:01:48.770Z,27.40
2018-04-26T05:02:48.741Z,32.60
2018-04-26T05:03:48.713Z,31.60
2018-04-26T05:04:48.688Z,31.60
2018-04-26T05:05:48.658Z,24.20
2018-04-26T05:06:48.629Z,28.50
2018-04-26T05:07:48.601Z,29.20
2018-04-26T05:08:48.574Z,29.80
2018-04-26T05:09:48.550Z,29.80
2018-04-26T05:10:48.517Z,31.40
2018-04-26T05:11:48.492Z,28.50
2018-04-26T05:12:48.462Z,23.20
2018-04-26T05:13:48.505Z,28.90
2018-04-26T05:14:48.414Z,26.30
2018-04-26T05:15:48.378Z,26.80
2018-04-26T05:16:48.350Z,26.40
2018-04-26T05:17:48.623Z,21.80
2018-04-26T05:18:48.300Z,22.90
2018-04-26T05:19:48.332Z,23.00
2018-04-26T05:20:48.239Z,23.10
2018-04-26T05:21:48.217Z,21.80
2018-04-26T05:22:48.184Z,24.00
2018-04-26T05:23:48.156Z,25.70
2018-04-26T05:24:48.128Z,21.60
2018-04-26T05:25:48.102Z,28.10
2018-04-26T05:26:48.072Z,18.80
2018-04-26T05:27:48.045Z,19.60
2018-04-26T05:28:48.026Z,28.70
2018-04-26T05:29:47.990Z,20.40
2018-04-26T05:30:47.961Z,26.10
2018-04-26T05:31:47.933Z,26.20
2018-04-26T05:32:47.907Z,26.00
2018-04-26T05:33:47.912Z,29.70
2018-04-26T05:34:47.850Z,33.30
2018-04-26T05:35:47.823Z,28.50
2018-04-26T05:36:47.795Z,34.10
2018-04-26T05:37:47.768Z,29.60
2018-04-26T05:38:47.740Z,32.60
2018-04-26T05:39:47.712Z,31.10
2018-04-26T05:40:47.684Z,23.10
2018-04-26T05:41:47.666Z,25.80
2018-04-26T05:42:47.636Z,30.10
2018-04-26T05:43:47.603Z,24.50
2018-04-26T05:44:47.577Z,34.00
2018-04-26T05:45:47.547Z,34.60
2018-04-26T05:46:47.519Z,36.20
2018-04-26T05:47:47.491Z,33.60
2018-04-26T05:48:47.464Z,24.60
2018-04-26T05:49:47.437Z,25.30
2018-04-26T05:50:47.409Z,36.80
2018-04-26T05:51:47.382Z,32.20
2018-04-26T05:52:47.354Z,33.00
2018-04-26T05:53:47.330Z,38.30
2018-04-26T05:54:47.299Z,37.20
2018-04-26T05:55:47.372Z,39.80
2018-04-26T05:56:47.244Z,21.50
2018-04-26T05:57:47.216Z,22.00
2018-04-26T05:58:47.188Z,25.10
2018-04-26T05:59:47.160Z,18.90
2018-04-26T06:00:47.136Z,24.80
2018-04-26T06:01:47.115Z,22.10
2018-04-26T06:02:47.085Z,21.90
2018-04-26T06:03:47.094Z,21.20
2018-04-26T06:04:47.022Z,20.90
2018-04-26T06:05:46.994Z,18.50
2018-04-26T06:06:46.970Z,20.10
2018-04-26T06:07:46.939Z,22.40
2018-04-26T06:08:46.910Z,24.40
2018-04-26T06:09:46.889Z,26.70
2018-04-26T06:10:46.854Z,25.10
2018-04-26T06:11:46.830Z,15.80
2018-04-26T06:12:46.799Z,29.80
2018-04-26T06:13:46.771Z,30.30
2018-04-26T06:14:46.743Z,33.60
2018-04-26T06:15:46.715Z,27.90
2018-04-26T06:16:46.692Z,27.90
2018-04-26T06:17:46.672Z,23.30
2018-04-26T06:18:46.635Z,28.50
2018-04-26T06:19:46.605Z,26.10
2018-04-26T06:20:46.581Z,22.50
2018-04-26T06:21:46.551Z,26.00
2018-04-26T06:22:46.523Z,24.70
2018-04-26T06:23:46.497Z,25.60
2018-04-26T06:24:46.469Z,28.10
2018-04-26T06:25:46.443Z,27.90
2018-04-26T06:26:46.415Z,29.40
2018-04-26T06:27:46.393Z,26.40
2018-04-26T06:28:46.362Z,24.20
2018-04-26T06:29:46.351Z,22.80
2018-04-26T06:30:46.333Z,24.00
2018-04-26T06:31:46.280Z,19.30
2018-04-26T06:32:46.258Z,19.30
2018-04-26T06:33:46.228Z,19.70
2018-04-26T06:34:46.200Z,19.40
2018-04-26T06:35:46.194Z,19.90
2018-04-26T06:36:46.197Z,20.30
2018-04-26T06:37:46.122Z,18.60
2018-04-26T06:38:46.093Z,19.40
2018-04-26T06:39:46.067Z,17.60
2018-04-26T06:40:46.042Z,19.80
2018-04-26T06:41:46.016Z,22.10
2018-04-26T06:42:45.988Z,24.60
2018-04-26T06:43:45.961Z,21.10
2018-04-26T06:44:45.933Z,19.80
2018-04-26T06:45:45.908Z,19.70
2018-04-26T06:46:45.878Z,19.00
2018-04-26T06:47:45.915Z,19.70
2018-04-26T06:48:45.825Z,22.60
2018-04-26T06:49:45.801Z,18.80
2018-04-26T06:50:45.771Z,22.10
2018-04-26T06:51:45.745Z,19.70
2018-04-26T06:52:45.725Z,21.00
2018-04-26T06:53:45.692Z,20.10
2018-04-26T06:54:45.664Z,17.60
2018-04-26T06:55:45.639Z,19.90
2018-04-26T06:56:45.625Z,21.30
2018-04-26T06:57:45.639Z,21.00
2018-04-26T06:58:45.559Z,22.20
2018-04-26T06:59:45.534Z,23.50
2018-04-26T07:00:45.504Z,19.80
2018-04-26T07:01:45.478Z,21.40
2018-04-26T07:02:45.456Z,19.80
2018-04-26T07:03:45.428Z,19.50
2018-04-26T07:04:45.399Z,20.40
2018-04-26T07:05:45.456Z,19.80
2018-04-26T07:06:45.346Z,18.10
2018-04-26T07:07:45.316Z,16.90
2018-04-26T07:08:45.290Z,16.40
2018-04-26T07:09:45.263Z,16.60
2018-04-26T07:10:45.236Z,16.20
2018-04-26T07:11:45.209Z,15.70
2018-04-26T07:12:45.188Z,17.10
2018-04-26T07:13:45.173Z,17.50
2018-04-26T07:14:45.131Z,17.60
2018-04-26T07:15:45.102Z,18.40
2018-04-26T07:16:45.076Z,19.40
2018-04-26T07:17:45.050Z,16.30
2018-04-26T07:18:45.023Z,16.90
2018-04-26T07:19:44.996Z,14.50
2018-04-26T07:20:44.970Z,17.60
2018-04-26T07:21:44.963Z,15.10
2018-04-26T07:22:44.921Z,16.00
2018-04-26T07:23:44.925Z,18.20
2018-04-26T07:24:44.869Z,16.30
2018-04-26T07:25:44.848Z,17.10
2018-04-26T07:26:44.814Z,15.50
2018-04-26T07:27:44.788Z,13.90
2018-04-26T07:28:44.764Z,15.20
2018-04-26T07:29:44.740Z,12.90
2018-04-26T07:30:44.710Z,13.10
2018-04-26T07:31:44.687Z,14.70
2018-04-26T07:32:44.660Z,14.30
2018-04-26T07:33:44.634Z,14.40
2018-04-26T07:34:44.621Z,10.10
2018-04-26T07:35:44.608Z,12.90
2018-04-26T07:36:44.557Z,13.70
2018-04-26T07:37:44.532Z,13.30
2018-04-26T07:38:44.506Z,15.20
2018-04-26T07:39:44.489Z,13.40
2018-04-26T07:40:44.463Z,13.20
2018-04-26T07:41:44.430Z,11.40
2018-04-26T07:42:44.405Z,10.30
2018-04-26T07:43:44.378Z,12.60
2018-04-26T07:44:44.366Z,12.50
2018-04-26T07:45:44.333Z,12.80
2018-04-26T07:46:44.311Z,12.90
2018-04-26T07:47:44.281Z,13.00
2018-04-26T07:48:44.252Z,13.00
2018-04-26T07:49:44.245Z,13.50
2018-04-26T07:50:44.202Z,12.70
2018-04-26T07:51:44.176Z,12.20
2018-04-26T07:52:44.152Z,12.40
2018-04-26T07:53:44.128Z,11.90
2018-04-26T07:54:44.107Z,12.10
2018-04-26T07:55:44.133Z,12.40
2018-04-26T07:56:44.053Z,10.80
2018-04-26T07:57:44.028Z,14.80
2018-04-26T07:58:44.010Z,12.10
2018-04-26T07:59:43.978Z,11.70
2018-04-26T08:00:43.953Z,10.70
2018-04-26T08:01:44.145Z,9.40
2018-04-26T08:02:43.907Z,11.70
2018-04-26T08:03:43.881Z,11.40
2018-04-26T08:04:43.867Z,11.40
2018-04-26T08:05:43.829Z,12.10
2018-04-26T08:06:43.831Z,13.20
2018-04-26T08:07:43.779Z,13.90
2018-04-26T08:08:43.757Z,10.00
2018-04-26T08:09:43.730Z,8.20
2018-04-26T08:10:43.714Z,11.50
2018-04-26T08:11:43.751Z,13.90
2018-04-26T08:12:43.656Z,12.60
2018-04-26T08:13:43.631Z,12.30
2018-04-26T08:14:43.606Z,13.50
2018-04-26T08:15:43.587Z,14.10
2018-04-26T08:16:43.558Z,12.60
2018-04-26T08:17:43.534Z,12.10
2018-04-26T08:18:43.525Z,13.00
2018-04-26T08:19:43.513Z,13.70
2018-04-26T08:20:43.463Z,15.60
2018-04-26T08:21:43.445Z,12.50
2018-04-26T08:22:43.412Z,14.00
2018-04-26T08:23:43.389Z,13.50
2018-04-26T08:24:43.365Z,14.90
2018-04-26T08:25:43.339Z,16.20
2018-04-26T08:26:43.319Z,13.40
2018-04-26T08:27:43.289Z,17.70
2018-04-26T08:28:43.270Z,14.40
2018-04-26T08:29:43.241Z,15.70
2018-04-26T08:30:43.213Z,15.50
2018-04-26T08:31:43.188Z,13.00
2018-04-26T08:32:43.163Z,16.50
2018-04-26T08:33:43.139Z,14.40
2018-04-26T08:34:43.113Z,13.20
2018-04-26T08:35:43.088Z,13.00
2018-04-26T08:36:43.068Z,14.40
2018-04-26T08:37:43.038Z,13.90
2018-04-26T08:38:43.030Z,11.40
2018-04-26T08:39:42.992Z,12.70
2018-04-26T08:40:42.966Z,11.50
2018-04-26T08:41:42.953Z,9.40
2018-04-26T08:42:42.911Z,10.60
2018-04-26T08:43:42.896Z,12.10
2018-04-26T08:44:42.888Z,11.10
2018-04-26T08:45:42.853Z,10.80
2018-04-26T08:46:42.828Z,10.40
2018-04-26T08:47:42.810Z,12.10
2018-04-26T08:48:42.771Z,12.30
2018-04-26T08:49:42.753Z,11.90
2018-04-26T08:50:42.731Z,10.60
2018-04-26T08:51:42.689Z,10.10
2018-04-26T08:52:42.667Z,10.40
2018-04-26T08:53:42.642Z,9.80
2018-04-26T08:54:42.613Z,11.60
2018-04-26T08:55:42.600Z,12.20
2018-04-26T08:56:42.603Z,10.20
2018-04-26T08:57:42.561Z,12.50
2018-04-26T08:58:42.516Z,9.40
2018-04-26T08:59:42.555Z,9.00
2018-04-26T09:00:42.469Z,10.00
2018-04-26T09:01:42.447Z,9.80
2018-04-26T09:02:42.427Z,11.80
2018-04-26T09:03:42.410Z,11.00
2018-04-26T09:04:42.384Z,10.80
2018-04-26T09:05:42.356Z,11.40
2018-04-26T09:06:42.338Z,9.10
2018-04-26T09:07:42.308Z,10.50
2018-04-26T09:08:42.286Z,7.60
2018-04-26T09:09:42.273Z,7.70
2018-04-26T09:10:42.238Z,8.90
2018-04-26T09:11:42.220Z,8.40
2018-04-26T09:12:42.193Z,8.70
2018-04-26T09:13:42.171Z,7.80
2018-04-26T09:14:42.144Z,7.60
2018-04-26T09:15:42.178Z,7.70
2018-04-26T09:16:42.098Z,10.60
2018-04-26T09:17:42.080Z,8.60
2018-04-26T09:18:42.053Z,6.70
2018-04-26T09:19:42.031Z,5.50
2018-04-26T09:20:42.009Z,6.20
2018-04-26T09:21:41.986Z,6.50
2018-04-26T09:22:41.965Z,6.80
2018-04-26T09:23:41.942Z,7.10
2018-04-26T09:24:42.142Z,6.20
2018-04-26T09:25:41.905Z,5.70
2018-04-26T09:26:41.880Z,5.60
2018-04-26T09:27:41.857Z,8.60
2018-04-26T09:28:41.832Z,8.90
2018-04-26T09:29:41.810Z,7.20
2018-04-26T09:30:41.796Z,6.90
2018-04-26T09:31:41.764Z,8.40
2018-04-26T09:32:41.745Z,7.00
2018-04-26T09:33:41.734Z,7.00
2018-04-26T09:34:41.696Z,6.50
2018-04-26T09:35:41.671Z,6.70
2018-04-26T09:36:41.649Z,7.30
2018-04-26T09:37:41.626Z,6.80
2018-04-26T09:38:41.669Z,7.00
2018-04-26T09:39:41.578Z,7.40
2018-04-26T09:40:41.552Z,6.80
2018-04-26T09:41:41.526Z,6.90
2018-04-26T09:42:41.501Z,6.60
2018-04-26T09:43:41.477Z,7.10
2018-04-26T09:44:41.454Z,8.10
2018-04-26T09:45:41.430Z,7.00
2018-04-26T09:46:41.422Z,7.00
2018-04-26T09:47:41.381Z,7.00
2018-04-26T09:48:41.423Z,8.30
2018-04-26T09:49:41.336Z,6.40
2018-04-26T09:50:41.303Z,7.50
2018-04-26T09:51:41.287Z,6.20
2018-04-26T09:52:41.255Z,6.70
2018-04-26T09:53:41.235Z,5.50
2018-04-26T09:54:41.206Z,5.90
2018-04-26T09:55:41.184Z,4.90
2018-04-26T09:56:41.231Z,5.80
2018-04-26T09:57:41.135Z,5.00
2018-04-26T09:58:41.114Z,4.80
2018-04-26T09:59:41.084Z,5.70
2018-04-26T10:00:41.058Z,6.10
2018-04-26T10:01:41.106Z,7.50
2018-04-26T10:02:41.010Z,6.40
2018-04-26T10:03:40.992Z,4.70
2018-04-26T10:04:40.956Z,5.50
2018-04-26T10:05:40.934Z,5.50
2018-04-26T10:06:40.917Z,6.20
2018-04-26T10:07:40.877Z,5.80
2018-04-26T10:08:40.856Z,6.40
2018-04-26T10:09:40.832Z,7.70
2018-04-26T10:10:40.800Z,9.60
2018-04-26T10:11:40.774Z,9.00
2018-04-26T10:12:40.747Z,9.90
2018-04-26T10:13:40.719Z,8.80
2018-04-26T10:14:40.703Z,9.10
2018-04-26T10:15:40.665Z,7.90
2018-04-26T10:16:40.648Z,8.20
2018-04-26T10:17:40.629Z,7.60
2018-04-26T10:18:40.640Z,8.40
2018-04-26T10:19:40.559Z,8.00
2018-04-26T10:20:40.563Z,8.10
2018-04-26T10:21:40.507Z,8.10
2018-04-26T10:22:40.478Z,7.70
2018-04-26T10:23:40.496Z,7.50
2018-04-26T10:24:40.423Z,8.10
2018-04-26T10:25:40.408Z,8.90
2018-04-26T10:26:40.376Z,8.60
2018-04-26T10:27:40.343Z,8.40
2018-04-26T10:28:40.318Z,8.60
2018-04-26T10:29:40.321Z,8.80
2018-04-26T10:30:40.264Z,8.90
2018-04-26T10:31:40.237Z,9.20
2018-04-26T10:32:40.209Z,9.00
2018-04-26T10:33:40.185Z,8.90
2018-04-26T10:34:40.155Z,7.90
2018-04-26T10:35:40.130Z,8.50
2018-04-26T10:36:40.144Z,8.90
2018-04-26T10:37:40.084Z,9.20
2018-04-26T10:38:40.057Z,9.10
2018-04-26T10:39:40.026Z,9.60
2018-04-26T10:40:40.008Z,8.50
2018-04-26T10:41:39.985Z,9.20
2018-04-26T10:42:39.952Z,8.60
2018-04-26T10:43:39.966Z,10.30
2018-04-26T10:44:39.899Z,11.00
2018-04-26T10:45:39.866Z,11.60
2018-04-26T10:46:39.859Z,11.80
2018-04-26T10:47:39.813Z,12.60
2018-04-26T10:48:39.789Z,12.70
2018-04-26T10:49:39.776Z,11.60
2018-04-26T10:50:39.736Z,10.90
2018-04-26T10:51:39.706Z,10.30
2018-04-26T10:52:39.679Z,10.80
2018-04-26T10:53:39.652Z,10.00
2018-04-26T10:54:39.627Z,10.60
2018-04-26T10:55:39.620Z,11.30
2018-04-26T10:56:39.574Z,11.00
2018-04-26T10:57:39.546Z,8.20
2018-04-26T10:58:39.538Z,9.30
2018-04-26T10:59:39.501Z,8.70
2018-04-26T11:00:39.478Z,9.20
2018-04-26T11:01:39.475Z,7.60
2018-04-26T11:02:39.441Z,7.80
2018-04-26T11:03:39.432Z,7.30
2018-04-26T11:04:39.385Z,7.30
2018-04-26T11:05:39.349Z,7.60
2018-04-26T11:06:39.313Z,7.00
2018-04-26T11:07:39.296Z,7.40
2018-04-26T11:08:39.268Z,7.60
2018-04-26T11:09:39.238Z,11.00
2018-04-26T11:10:39.262Z,9.20
2018-04-26T11:11:39.284Z,7.80
2018-04-26T11:12:39.171Z,7.60
2018-04-26T11:13:39.138Z,7.20
2018-04-26T11:14:39.117Z,5.10
2018-04-26T11:15:39.211Z,3.50
2018-04-26T11:16:39.064Z,3.50
2018-04-26T11:17:39.068Z,4.70
2018-04-26T11:18:39.025Z,4.20
2018-04-26T11:19:38.993Z,4.50
2018-04-26T11:20:38.974Z,4.70
2018-04-26T11:21:38.950Z,5.00
2018-04-26T11:22:38.956Z,5.30
2018-04-26T11:23:38.905Z,6.00
2018-04-26T11:24:38.871Z,5.10
2018-04-26T11:25:38.850Z,4.80
2018-04-26T11:26:38.840Z,4.10
2018-04-26T11:27:38.797Z,4.40
2018-04-26T11:28:38.772Z,4.30
2018-04-26T11:29:38.760Z,4.00
2018-04-26T11:30:38.729Z,3.20
2018-04-26T11:31:38.696Z,3.20
2018-04-26T11:32:38.711Z,3.10
2018-04-26T11:33:38.670Z,2.80
2018-04-26T11:34:38.623Z,3.00
2018-04-26T11:35:38.607Z,3.60
2018-04-26T11:36:38.585Z,2.40
2018-04-26T11:37:38.551Z,2.30
2018-04-26T11:38:38.519Z,2.80
2018-04-26T11:39:38.528Z,2.50
2018-04-26T11:40:38.465Z,3.00
2018-04-26T11:41:38.453Z,3.10
2018-04-26T11:42:38.418Z,2.80
2018-04-26T11:43:38.386Z,2.30
2018-04-26T11:44:38.361Z,2.60
2018-04-26T11:45:38.336Z,2.50
2018-04-26T11:46:38.320Z,3.00
2018-04-26T11:47:38.284Z,3.20
2018-04-26T11:48:38.257Z,3.60
2018-04-26T11:49:38.246Z,3.30
2018-04-26T11:50:38.206Z,2.80
2018-04-26T11:51:38.183Z,3.30
2018-04-26T11:52:38.179Z,3.00
2018-04-26T11:53:38.140Z,4.40
2018-04-26T11:54:38.110Z,4.50
2018-04-26T11:55:38.088Z,3.70
2018-04-26T11:56:38.064Z,3.40
2018-04-26T11:57:38.042Z,3.70
2018-04-26T11:58:38.017Z,4.10
2018-04-26T11:59:37.999Z,5.70
2018-04-26T12:00:37.997Z,5.20
2018-04-26T12:01:38.041Z,4.10
2018-04-26T12:02:38.003Z,4.10
2018-04-26T12:03:37.921Z,3.60
2018-04-26T12:04:37.878Z,4.10
2018-04-26T12:05:37.856Z,3.70
2018-04-26T12:06:37.832Z,3.50
2018-04-26T12:07:37.851Z,3.90
2018-04-26T12:08:37.789Z,4.60
2018-04-26T12:09:37.769Z,3.90
2018-04-26T12:10:37.760Z,3.70
2018-04-26T12:11:37.719Z,3.60
2018-04-26T12:12:37.698Z,4.50
2018-04-26T12:13:37.674Z,3.80
2018-04-26T12:14:37.651Z,4.50
2018-04-26T12:15:37.635Z,4.40
2018-04-26T12:16:37.606Z,3.70
2018-04-26T12:17:37.589Z,3.80
2018-04-26T12:18:37.676Z,3.40
2018-04-26T12:19:37.538Z,3.80
2018-04-26T12:20:37.513Z,3.70
2018-04-26T12:21:37.500Z,3.80
2018-04-26T12:22:37.464Z,4.10
2018-04-26T12:23:37.445Z,4.50
2018-04-26T12:24:37.416Z,4.40
2018-04-26T12:25:37.408Z,3.60
2018-04-26T12:26:37.367Z,3.60
2018-04-26T12:27:37.347Z,3.60
2018-04-26T12:28:37.328Z,3.00
2018-04-26T12:29:37.294Z,2.90
2018-04-26T12:30:37.272Z,2.80
2018-04-26T12:31:37.248Z,3.20
2018-04-26T12:32:37.221Z,3.10
2018-04-26T12:33:37.208Z,2.80
2018-04-26T12:34:37.173Z,3.30
2018-04-26T12:35:37.142Z,3.10
2018-04-26T12:36:37.118Z,2.80
2018-04-26T12:37:37.128Z,2.90
2018-04-26T12:38:37.064Z,3.80
2018-04-26T12:39:37.039Z,3.20
2018-04-26T12:40:37.024Z,3.20
2018-04-26T12:41:37.006Z,3.90
2018-04-26T12:42:36.961Z,3.60
2018-04-26T12:43:36.935Z,3.40
2018-04-26T12:44:36.904Z,3.90
2018-04-26T12:45:36.878Z,3.40
2018-04-26T12:46:36.850Z,2.90
2018-04-26T12:47:36.969Z,3.20
2018-04-26T12:48:36.796Z,3.20
2018-04-26T12:49:36.770Z,3.00
2018-04-26T12:50:36.743Z,4.40
2018-04-26T12:51:36.715Z,5.10
2018-04-26T12:52:36.691Z,4.50
2018-04-26T12:53:36.662Z,3.70
2018-04-26T12:54:36.637Z,5.60
2018-04-26T12:55:36.607Z,5.70
2018-04-26T12:56:36.581Z,4.00
2018-04-26T12:57:36.555Z,4.20
2018-04-26T12:58:36.570Z,3.80
2018-04-26T12:59:36.515Z,3.70
2018-04-26T13:00:36.482Z,3.70
2018-04-26T13:01:36.471Z,4.10
2018-04-26T13:02:36.436Z,4.10